Wednesday, August 15, 2018, 7:06 AM EDT
Back to Local

KTTN, Trenton Mercer County Airport

Location: Trenton, NJ, United States Lat: 40.283
Local Time: 7:06 AM EDT (11:06 GMT) Lon: -74.817
Time Zone: US/Eastern Elev: 213 ft

Show me the last for .
Show Decoded

2018-08-15 06:53 METAR KTTN 151053Z 28006KT 10SM CLR 21/19 A2991 RMK AO2 SLP120 T02110189 =
2018-08-15 05:53 METAR KTTN 150953Z 28005KT 10SM CLR 21/19 A2989 RMK AO2 SLP115 T02110189 =
2018-08-15 04:53 METAR KTTN 150853Z AUTO 25004KT 10SM FEW060 21/19 A2989 RMK AO2 SLP114 60000
                 T02110189 53002 =
2018-08-15 03:53 METAR KTTN 150753Z AUTO 25004KT 10SM FEW060 21/19 A2988 RMK AO2 SLP112 T02110189
                 =
2018-08-15 02:53 METAR KTTN 150653Z AUTO 27005KT 10SM CLR 21/19 A2988 RMK AO2 RAE03 SLP111 P0000
                 T02110194 =
2018-08-15 01:53 METAR KTTN 150553Z AUTO 25004KT 10SM -RA FEW046 SCT110 22/19 A2988 RMK AO2 RAB50
                 SLP111 P0000 60000 T02170194 10222 20206 55001 =
2018-08-15 00:53 METAR KTTN 150453Z AUTO 26005KT 10SM SCT070 SCT100 22/19 A2988 RMK AO2 SLP111
                 T02170194 402830189 =
2018-08-14 23:53 METAR KTTN 150353Z AUTO 24003KT 10SM SCT048 BKN065 OVC090 22/20 A2988 RMK AO2
                 SLP112 T02170200 =
2018-08-14 22:53 METAR KTTN 150253Z AUTO 23003KT 10SM BKN037 BKN065 OVC085 22/21 A2989 RMK AO2
                 SLP113 T02170206 51009 =
2018-08-14 21:53 METAR KTTN 150153Z 27004KT 10SM FEW021 SCT028 BKN039 22/21 A2988 RMK AO2 SLP112
                 T02170206 =
2018-08-14 20:53 METAR KTTN 150053Z 22004KT 10SM CLR 21/19 A2987 RMK AO2 SLP108 T02060194 =
2018-08-14 19:53 METAR KTTN 142353Z 24004KT 10SM CLR 21/19 A2986 RMK AO2 RAE01 SLP104 P0000 60033
                 T02110194 10283 20211 58001 =
2018-08-14 18:53 METAR KTTN 142253Z 20008KT 10SM -RA BKN047 BKN055 OVC090 22/20 A2986 RMK AO2
                 TSE07 SLP106 P0002 T02170200 =
2018-08-14 18:24 METAR KTTN 142224Z 20006KT 10SM -RA BKN095 BKN110 21/20 A2986 RMK AO2 LTG DSNT E
                 AND S TSE07 P0002 T02110200 =
2018-08-14 18:13 METAR KTTN 142213Z 19005KT 10SM VCTS -RA BKN110 21/20 A2986 RMK AO2 LTG DSNT E
                 AND S TSE07 P0001 T02110200 =
2018-08-14 17:53 METAR KTTN 142153Z 22006KT 4SM -TSRA BR SCT022 SCT055 BKN090 22/20 A2987 RMK AO2
                 LTG DSNT S RAB40 TSB34E49B52 SLP106 P0003 T02170200 =
2018-08-14 17:49 METAR KTTN 142149Z 22005KT 3SM VCTS RA BR SCT023 BKN060 BKN090 22/20 A2986 RMK
                 AO2 LTG DSNT N AND S RAB40 TSB34E49 P0003 =
2018-08-14 17:38 METAR KTTN 142138Z 25010G16KT 10SM TS SCT017 BKN026 BKN046 23/20 A2986 RMK AO2
                 LTG DSNT N TSB34 T02330200 =
2018-08-14 17:18 METAR KTTN 142118Z 18005KT 10SM VCTS CLR 24/21 A2985 RMK AO2 LTG DSNT W-N
                 T02440211 =
2018-08-14 16:53 METAR KTTN 142053Z VRB05KT 10SM CLR 26/22 A2984 RMK AO2 LTG DSNT W AND NW SLP098
                 60028 T02560217 50001 =
2018-08-14 16:04 METAR KTTN 142004Z 23004KT 10SM BKN120 23/21 A2984 RMK AO2 LTG DSNT ALQDS
                 T02280211 =
2018-08-14 15:53 METAR KTTN 141953Z 23005KT 10SM VCTS FEW039 SCT110 23/21 A2985 RMK AO2 LTG DSNT
                 E AND S RAB02E40 TSB04E34 SLP102 P0028 T02280206 =
2018-08-14 15:40 METAR KTTN 141940Z 27005KT 10SM VCTS SCT029 SCT090 BKN110 22/21 A2985 RMK AO2
                 LTG DSNT ALQDS RAB02E40 TSB04E34 P0028 T02220206 =
2018-08-14 15:33 METAR KTTN 141933Z 31004KT 6SM -TSRA BR SCT029 SCT038 BKN100 22/21 A2984 RMK AO2
                 LTG DSNT ALQDS RAB02 TSB04 P0028 T02170206 =
2018-08-14 15:26 METAR KTTN 141926Z 31006KT 2 1/2SM -TSRA BR SCT026 BKN038 OVC110 22/20 A2985 RMK
                 AO2 LTG DSNT E-SW RAB02 TSB04 P0028 T02170200 =
2018-08-14 15:13 METAR KTTN 141913Z 26009KT 3/4SM +TSRA SCT024 BKN033 OVC045 22/19 A2986 RMK AO2
                 LTG DSNT N AND E AND SW RAB02 TSB04 P0019 T02220194 =
2018-08-14 15:07 METAR KTTN 141907Z 25007KT 2 1/2SM +TSRA SCT037 BKN050 OVC090 23/19 A2986 RMK
                 AO2 LTG DSNT N AND E AND SW RAB02 TSB04 PRESRR P0005 T02330194 =
2018-08-14 14:53 METAR KTTN 141853Z 29013G20KT 10SM VCTS FEW034 SCT045 BKN095 27/19 A2984 RMK AO2
                 LTG DSNT SW-N SLP096 T02670194 =
2018-08-14 14:49 METAR KTTN 141849Z 26009G17KT 10SM VCTS FEW047 SCT095 BKN110 27/19 A2984 RMK AO2
                 LTG DSNT SW-N =
2018-08-14 13:53 METAR KTTN 141753Z VRB06KT 10SM SCT035 SCT110 28/20 A2985 RMK AO2 LTG DSNT NE
                 RAB00E11 SLP102 P0002 60002 T02780200 10278 20200 56015 =
2018-08-14 12:53 METAR KTTN 141653Z VRB06KT 10SM FEW028 27/20 A2986 RMK AO2 LTG DSNT NW SLP104
                 T02720200 =
2018-08-14 11:53 METAR KTTN 141553Z 25004KT 10SM FEW019 26/21 A2988 RMK AO2 LTG DSNT N SLP111
                 T02610211 =
2018-08-14 11:11 METAR KTTN 141511Z 24007KT 10SM FEW019 25/21 A2990 RMK AO2 T02500211 =
2018-08-14 10:53 METAR KTTN 141453Z 26008KT 10SM FEW011 SCT017 BKN022 24/21 A2990 RMK AO2 SLP118
                 T02440211 53004 =
2018-08-14 10:42 METAR KTTN 141442Z 23005KT 10SM SCT009 BKN019 24/21 A2990 RMK AO2 T02390211 =
2018-08-14 10:30 METAR KTTN 141430Z 22006KT 10SM BKN010 BKN021 24/21 A2990 RMK AO2 CIG 007V012
                 T02390211 =
2018-08-14 10:23 METAR KTTN 141423Z 22006KT 10SM BKN007 BKN010 OVC016 23/21 A2990 RMK AO2 CIG
                 004V009 T02330211 =
2018-08-14 10:15 METAR KTTN 141415Z 25004KT 10SM OVC010 23/21 A2990 RMK AO2 CIG 004V012 T02280211
                 =
2018-08-14 09:53 METAR KTTN 141353Z VRB06KT 7SM OVC003 22/21 A2989 RMK AO2 CIG 002V006 SLP115
                 T02220206 =
2018-08-14 09:41 METAR KTTN 141341Z 23004KT 4SM BR OVC003 22/21 A2989 RMK AO2 T02170211 =
2018-08-14 09:30 METAR KTTN 141330Z 21004KT 2SM BR OVC003 22/21 A2989 RMK AO2 T02170206 =
2018-08-14 08:53 METAR KTTN 141253Z 24006KT 5SM BR OVC002 21/20 A2990 RMK AO2 SLP117 T02060200 =
2018-08-14 08:45 METAR KTTN 141245Z 24006KT 3SM BR OVC002 21/21 A2990 RMK AO2 T02110206 =
2018-08-14 08:31 METAR KTTN 141231Z 22006KT 1 1/2SM BR OVC002 21/20 A2990 RMK AO2 T02060200 =
2018-08-14 07:57 METAR KTTN 141157Z 20003KT 3/4SM BR OVC003 20/19 A2989 RMK AO2 T02000194 =
2018-08-14 07:53 METAR KTTN 141153Z 21004KT 2 1/2SM BR OVC003 20/19 A2989 RMK AO2 SLP114 70029
                 T02000194 10211 20189 50006 =
2018-08-14 07:16 METAR KTTN 141116Z 26003KT 7SM OVC004 20/19 A2990 RMK AO2 CIG 003V006 T02000194
                 =

Support USWX by starting your Amazon purchase here.